createdAt,value
2022-12-11T00:02:01.372Z,97.81
2022-12-11T00:04:29.145Z,97.12
2022-12-11T00:06:57.168Z,98.30
2022-12-11T00:09:26.428Z,98.43
2022-12-11T00:11:54.167Z,99.02
2022-12-11T00:14:21.932Z,99.70
2022-12-11T00:16:50.124Z,100.00
2022-12-11T00:19:18.151Z,100.00
2022-12-11T00:21:45.904Z,99.80
2022-12-11T00:24:13.707Z,99.99
2022-12-11T00:26:42.777Z,99.98
2022-12-11T00:29:14.392Z,100.00
2022-12-11T00:31:42.799Z,99.49
2022-12-11T00:34:11.969Z,99.54
2022-12-11T00:36:40.640Z,98.90
2022-12-11T00:39:08.452Z,98.61
2022-12-11T00:41:36.276Z,98.35
2022-12-11T00:44:05.848Z,99.20
2022-12-11T00:46:33.575Z,98.71
2022-12-11T00:49:01.293Z,98.65
2022-12-11T00:51:29.084Z,99.01
2022-12-11T00:53:56.851Z,99.20
2022-12-11T00:56:25.205Z,98.51
2022-12-11T00:58:53.146Z,98.86
2022-12-11T01:01:24.552Z,98.42
2022-12-11T01:03:53.722Z,99.55
2022-12-11T01:06:23.527Z,99.47
2022-12-11T01:09:13.282Z,99.36
2022-12-11T01:11:41.071Z,99.70
2022-12-11T01:14:09.543Z,99.72
2022-12-11T01:16:38.747Z,100.00
2022-12-11T01:19:06.580Z,100.00
2022-12-11T01:21:34.332Z,100.00
2022-12-11T01:24:02.102Z,100.00
2022-12-11T01:26:30.642Z,100.00
2022-12-11T01:28:58.458Z,100.00
2022-12-11T01:31:26.480Z,100.00
2022-12-11T01:33:56.915Z,100.00
2022-12-11T01:36:24.944Z,100.00
2022-12-11T01:38:54.299Z,100.00
2022-12-11T01:41:22.355Z,100.00
2022-12-11T01:44:05.009Z,100.00
2022-12-11T01:46:35.016Z,100.00
2022-12-11T01:49:07.123Z,100.00
2022-12-11T01:51:39.964Z,100.00
2022-12-11T01:54:12.692Z,100.00
2022-12-11T01:56:44.951Z,100.00
2022-12-11T01:59:16.622Z,100.00
2022-12-11T02:01:50.232Z,100.00
2022-12-11T02:04:20.966Z,100.00
2022-12-11T02:06:51.819Z,100.00
2022-12-11T02:09:22.998Z,100.00
2022-12-11T02:11:57.838Z,100.00
2022-12-11T02:14:33.125Z,100.00
2022-12-11T02:17:05.902Z,100.00
2022-12-11T02:19:49.437Z,100.00
2022-12-11T02:22:28.630Z,100.00
2022-12-11T02:25:10.825Z,100.00
2022-12-11T02:27:44.174Z,100.00
2022-12-11T02:30:15.714Z,100.00
2022-12-11T02:32:48.248Z,100.00
2022-12-11T02:35:21.426Z,100.00
2022-12-11T02:37:52.840Z,100.00
2022-12-11T02:40:26.244Z,100.00
2022-12-11T02:42:56.922Z,100.00
2022-12-11T02:45:28.253Z,100.00
2022-12-11T02:47:58.839Z,100.00
2022-12-11T02:50:27.922Z,100.00
2022-12-11T02:52:58.234Z,100.00
2022-12-11T02:55:29.254Z,100.00
2022-12-11T02:58:03.724Z,100.00
2022-12-11T03:00:33.083Z,100.00
2022-12-11T03:03:01.019Z,100.00
2022-12-11T03:05:28.816Z,100.00
2022-12-11T03:07:56.593Z,100.00
2022-12-11T03:10:25.322Z,100.00
2022-12-11T03:12:56.479Z,100.00
2022-12-11T03:15:32.918Z,100.00
2022-12-11T03:18:08.579Z,100.00
2022-12-11T03:20:40.583Z,100.00
2022-12-11T03:23:17.830Z,100.00
2022-12-11T03:25:53.366Z,100.00
2022-12-11T03:28:26.815Z,100.00
2022-12-11T03:30:55.263Z,100.00
2022-12-11T03:33:30.568Z,100.00
2022-12-11T03:36:04.200Z,100.00
2022-12-11T03:38:37.372Z,100.00
2022-12-11T03:41:09.101Z,100.00
2022-12-11T03:43:38.240Z,100.00
2022-12-11T03:46:07.705Z,100.00
2022-12-11T03:48:40.482Z,100.00
2022-12-11T03:51:09.222Z,100.00
2022-12-11T03:53:39.565Z,100.00
2022-12-11T03:56:11.193Z,100.00
2022-12-11T03:58:39.533Z,100.00
2022-12-11T04:01:10.146Z,100.00
2022-12-11T04:03:40.522Z,100.00
2022-12-11T04:06:08.722Z,100.00
2022-12-11T04:08:36.428Z,100.00
2022-12-11T04:11:22.875Z,100.00
2022-12-11T04:14:11.157Z,100.00
2022-12-11T04:16:38.260Z,100.00
2022-12-11T04:19:24.992Z,100.00
2022-12-11T04:22:10.470Z,100.00
2022-12-11T04:24:38.239Z,100.00
2022-12-11T04:27:06.098Z,100.00
2022-12-11T04:29:33.813Z,100.00
2022-12-11T04:32:01.660Z,100.00
2022-12-11T04:34:31.189Z,100.00
2022-12-11T04:36:59.247Z,100.00
2022-12-11T04:39:27.021Z,100.00
2022-12-11T04:41:54.758Z,100.00
2022-12-11T04:44:22.493Z,100.00
2022-12-11T04:46:50.352Z,100.00
2022-12-11T04:49:18.111Z,100.00
2022-12-11T04:51:47.222Z,100.00
2022-12-11T04:54:14.962Z,100.00
2022-12-11T04:56:42.662Z,100.00
2022-12-11T04:59:10.603Z,100.00
2022-12-11T05:01:38.344Z,100.00
2022-12-11T05:04:06.217Z,100.00
2022-12-11T05:06:34.076Z,100.00
2022-12-11T05:09:03.165Z,100.00
2022-12-11T05:11:31.033Z,100.00
2022-12-11T05:13:58.767Z,100.00
2022-12-11T05:16:26.487Z,100.00
2022-12-11T05:18:54.239Z,100.00
2022-12-11T05:21:21.960Z,100.00
2022-12-11T05:23:49.730Z,100.00
2022-12-11T05:26:21.062Z,100.00
2022-12-11T05:28:54.257Z,100.00
2022-12-11T05:31:23.259Z,100.00
2022-12-11T05:33:51.886Z,100.00
2022-12-11T05:36:21.712Z,100.00
2022-12-11T05:38:49.848Z,100.00
2022-12-11T05:41:21.584Z,100.00
2022-12-11T05:43:49.456Z,100.00
2022-12-11T05:46:19.360Z,100.00
2022-12-11T05:48:49.873Z,100.00
2022-12-11T05:51:18.773Z,100.00
2022-12-11T05:53:50.589Z,100.00
2022-12-11T05:56:22.750Z,100.00
2022-12-11T05:58:50.587Z,100.00
2022-12-11T06:01:20.614Z,100.00
2022-12-11T06:03:48.629Z,100.00
2022-12-11T06:06:16.727Z,100.00
2022-12-11T06:08:44.463Z,100.00
2022-12-11T06:11:13.956Z,100.00
2022-12-11T06:13:43.018Z,100.00
2022-12-11T06:16:11.221Z,100.00
2022-12-11T06:18:40.953Z,100.00
2022-12-11T06:21:16.305Z,100.00
2022-12-11T06:23:45.235Z,100.00
2022-12-11T06:26:13.492Z,100.00
2022-12-11T06:28:41.302Z,100.00
2022-12-11T06:31:10.624Z,100.00
2022-12-11T06:33:39.063Z,100.00
2022-12-11T06:36:08.904Z,100.00
2022-12-11T06:38:37.216Z,100.00
2022-12-11T06:41:06.955Z,100.00
2022-12-11T06:43:35.632Z,100.00
2022-12-11T06:46:05.204Z,100.00
2022-12-11T06:48:34.764Z,100.00
2022-12-11T06:51:07.608Z,100.00
2022-12-11T06:53:35.419Z,100.00
2022-12-11T06:56:05.217Z,100.00
2022-12-11T06:58:34.675Z,100.00
2022-12-11T07:01:02.851Z,100.00
2022-12-11T07:03:30.672Z,100.00
2022-12-11T07:06:03.274Z,100.00
2022-12-11T07:08:31.934Z,100.00
2022-12-11T07:11:04.478Z,100.00
2022-12-11T07:13:32.262Z,100.00
2022-12-11T07:16:00.418Z,100.00
2022-12-11T07:18:28.710Z,100.00
2022-12-11T07:20:59.193Z,100.00
2022-12-11T07:23:28.678Z,100.00
2022-12-11T07:25:57.662Z,100.00
2022-12-11T07:28:26.045Z,100.00
2022-12-11T07:30:53.828Z,100.00
2022-12-11T07:33:21.548Z,100.00
2022-12-11T07:35:49.379Z,100.00
2022-12-11T07:38:18.239Z,100.00
2022-12-11T07:40:47.318Z,100.00
2022-12-11T07:43:15.030Z,100.00
2022-12-11T07:45:42.837Z,100.00
2022-12-11T07:48:10.805Z,100.00
2022-12-11T07:50:40.006Z,100.00
2022-12-11T07:53:07.851Z,100.00
2022-12-11T07:55:35.629Z,100.00
2022-12-11T07:58:05.017Z,100.00
2022-12-11T08:00:32.775Z,100.00
2022-12-11T08:03:00.772Z,100.00
2022-12-11T08:05:28.477Z,100.00
2022-12-11T08:07:56.586Z,100.00
2022-12-11T08:10:24.355Z,100.00
2022-12-11T08:12:52.184Z,100.00
2022-12-11T08:15:21.279Z,100.00
2022-12-11T08:17:49.404Z,100.00
2022-12-11T08:20:17.866Z,100.00
2022-12-11T08:22:45.583Z,100.00
2022-12-11T08:25:13.663Z,100.00
2022-12-11T08:27:41.533Z,100.00
2022-12-11T08:30:10.712Z,100.00
2022-12-11T08:32:39.811Z,100.00
2022-12-11T08:35:08.864Z,100.00
2022-12-11T08:37:36.766Z,100.00
2022-12-11T08:40:05.164Z,100.00
2022-12-11T08:42:32.845Z,100.00
2022-12-11T08:45:00.612Z,100.00
2022-12-11T08:47:28.600Z,100.00
2022-12-11T08:49:57.754Z,100.00
2022-12-11T08:52:25.571Z,100.00
2022-12-11T08:54:53.351Z,100.00
2022-12-11T08:57:21.075Z,100.00
2022-12-11T08:59:49.009Z,100.00
2022-12-11T09:02:16.842Z,100.00
2022-12-11T09:04:44.624Z,100.00
2022-12-11T09:07:13.716Z,100.00
2022-12-11T09:09:41.496Z,100.00
2022-12-11T09:12:09.242Z,100.00
2022-12-11T09:14:37.600Z,100.00
2022-12-11T09:17:06.338Z,100.00
2022-12-11T09:19:34.824Z,100.00
2022-12-11T09:22:02.697Z,100.00
2022-12-11T09:24:32.136Z,100.00
2022-12-11T09:26:59.865Z,100.00
2022-12-11T09:29:27.667Z,100.00
2022-12-11T09:31:55.339Z,100.00
2022-12-11T09:34:28.947Z,100.00
2022-12-11T09:36:57.656Z,100.00
2022-12-11T09:39:25.585Z,100.00
2022-12-11T09:42:03.640Z,100.00
2022-12-11T09:44:38.962Z,100.00
2022-12-11T09:47:20.354Z,100.00
2022-12-11T09:49:50.730Z,100.00
2022-12-11T09:52:22.199Z,100.00
2022-12-11T09:54:53.638Z,100.00
2022-12-11T09:57:32.711Z,100.00
2022-12-11T10:00:11.234Z,100.00
2022-12-11T10:02:53.744Z,100.00
2022-12-11T10:05:30.825Z,100.00
2022-12-11T10:08:04.253Z,100.00
2022-12-11T10:10:42.664Z,100.00
2022-12-11T10:13:25.128Z,100.00
2022-12-11T10:15:58.903Z,100.00
2022-12-11T10:18:29.364Z,100.00
2022-12-11T10:20:57.616Z,100.00
2022-12-11T10:23:35.444Z,99.38
2022-12-11T10:26:08.206Z,99.72
2022-12-11T10:28:37.543Z,99.97
2022-12-11T10:31:16.895Z,100.00
2022-12-11T10:33:55.988Z,100.00
2022-12-11T10:36:28.816Z,99.95
2022-12-11T10:38:56.857Z,99.46
2022-12-11T10:41:32.242Z,99.46
2022-12-11T10:44:01.833Z,98.50
2022-12-11T10:46:32.870Z,99.25
2022-12-11T10:49:01.813Z,98.25
2022-12-11T10:51:37.210Z,97.95
2022-12-11T10:54:07.960Z,98.00
2022-12-11T10:56:38.539Z,99.35
2022-12-11T10:59:08.048Z,98.08
2022-12-11T11:01:36.029Z,98.80
2022-12-11T11:04:07.262Z,98.99
2022-12-11T11:06:36.193Z,98.58
2022-12-11T11:09:04.351Z,98.56
2022-12-11T11:11:34.501Z,99.35
2022-12-11T11:14:13.393Z,98.60
2022-12-11T11:16:42.581Z,98.20
2022-12-11T11:19:20.849Z,97.39
2022-12-11T11:21:53.560Z,97.65
2022-12-11T11:24:40.954Z,97.11
2022-12-11T11:27:15.592Z,96.76
2022-12-11T11:29:48.964Z,95.65
2022-12-11T11:32:24.666Z,95.33
2022-12-11T11:34:52.492Z,95.02
2022-12-11T11:37:27.555Z,95.23
2022-12-11T11:40:02.994Z,95.44
2022-12-11T11:42:42.087Z,95.78
2022-12-11T11:45:18.830Z,95.04
2022-12-11T11:47:55.851Z,92.39
2022-12-11T11:50:26.972Z,92.92
2022-12-11T11:53:03.281Z,92.46
2022-12-11T11:55:42.097Z,92.76
2022-12-11T11:58:16.512Z,93.30
2022-12-11T12:00:45.660Z,93.01
2022-12-11T12:03:16.418Z,91.51
2022-12-11T12:05:53.932Z,90.83
2022-12-11T12:08:35.232Z,91.40
2022-12-11T12:11:08.487Z,92.85
2022-12-11T12:13:50.416Z,91.42
2022-12-11T12:16:52.207Z,91.86
2022-12-11T12:19:30.988Z,93.20
2022-12-11T12:22:10.704Z,91.80
2022-12-11T12:24:48.112Z,92.03
2022-12-11T12:27:50.932Z,91.80
2022-12-11T12:30:16.213Z,92.06
2022-12-11T12:33:03.791Z,91.60
2022-12-11T12:35:36.562Z,90.68
2022-12-11T12:38:12.276Z,92.71
2022-12-11T12:40:45.793Z,91.33
2022-12-11T12:43:40.722Z,92.38
2022-12-11T12:46:21.897Z,91.83
2022-12-11T12:48:59.707Z,92.22
2022-12-11T12:51:38.993Z,91.13
2022-12-11T12:54:12.607Z,93.29
2022-12-11T12:56:43.511Z,93.84
2022-12-11T12:59:22.064Z,92.26
2022-12-11T13:01:54.978Z,92.41
2022-12-11T13:07:30.661Z,92.16
2022-12-11T13:10:02.636Z,91.88
2022-12-11T13:12:42.470Z,92.83
2022-12-11T13:15:32.262Z,93.14
2022-12-11T13:18:01.136Z,91.87
2022-12-11T13:20:32.320Z,92.54
2022-12-11T13:23:26.973Z,92.44
2022-12-11T13:25:56.606Z,92.15
2022-12-11T13:28:28.478Z,91.24
2022-12-11T13:31:06.008Z,90.96
2022-12-11T13:33:39.494Z,89.59
2022-12-11T13:36:25.228Z,89.72
2022-12-11T13:38:56.059Z,89.54
2022-12-11T13:41:24.646Z,87.53
2022-12-11T13:43:53.767Z,87.12
2022-12-11T13:46:26.226Z,87.85
2022-12-11T13:48:57.185Z,87.69
2022-12-11T13:51:29.158Z,89.31
2022-12-11T13:54:06.078Z,89.02
2022-12-11T13:56:34.239Z,89.28
2022-12-11T13:59:02.432Z,87.95
2022-12-11T14:01:33.138Z,88.51
2022-12-11T14:04:08.133Z,88.43
2022-12-11T14:06:39.241Z,88.25
2022-12-11T14:09:09.241Z,88.41
2022-12-11T14:11:41.324Z,88.48
2022-12-11T14:14:19.357Z,87.39
2022-12-11T14:16:49.167Z,87.56
2022-12-11T14:19:20.116Z,86.22
2022-12-11T14:21:59.204Z,87.10
2022-12-11T14:24:27.131Z,87.84
2022-12-11T14:26:55.989Z,87.96
2022-12-11T14:29:29.780Z,88.18
2022-12-11T14:32:00.888Z,88.22
2022-12-11T14:34:34.297Z,87.76
2022-12-11T14:37:06.864Z,88.14
2022-12-11T14:39:39.238Z,87.87
2022-12-11T14:42:11.763Z,89.30
2022-12-11T14:44:48.942Z,88.64
2022-12-11T14:47:21.381Z,89.62
2022-12-11T14:49:53.582Z,89.09
2022-12-11T14:52:26.618Z,89.07
2022-12-11T14:54:57.543Z,89.10
2022-12-11T14:57:29.956Z,89.71
2022-12-11T14:59:58.751Z,88.96
2022-12-11T15:02:30.693Z,89.53
2022-12-11T15:05:04.009Z,89.21
2022-12-11T15:07:33.257Z,90.01
2022-12-11T15:10:00.930Z,90.03
2022-12-11T15:12:28.824Z,88.23
2022-12-11T15:15:00.693Z,88.50
2022-12-11T15:17:32.930Z,88.83
2022-12-11T15:20:06.022Z,89.42
2022-12-11T15:22:37.087Z,89.10
2022-12-11T15:25:05.847Z,89.90
2022-12-11T15:27:36.688Z,89.26
2022-12-11T15:30:17.788Z,90.56
2022-12-11T15:32:45.499Z,90.85
2022-12-11T15:35:24.025Z,91.37
2022-12-11T15:37:56.199Z,90.80
2022-12-11T15:40:24.983Z,91.74
2022-12-11T15:42:54.752Z,91.64
2022-12-11T15:45:24.427Z,91.29
2022-12-11T15:47:53.202Z,92.39
2022-12-11T15:50:23.269Z,92.13
2022-12-11T15:52:52.189Z,91.60
2022-12-11T15:55:23.519Z,92.33
2022-12-11T15:57:59.083Z,92.11
2022-12-11T16:00:28.048Z,91.83
2022-12-11T16:02:59.330Z,92.54
2022-12-11T16:05:27.866Z,92.45
2022-12-11T16:07:59.294Z,92.50
2022-12-11T16:10:28.635Z,92.35
2022-12-11T16:12:59.485Z,91.88
2022-12-11T16:15:27.801Z,93.08
2022-12-11T16:18:03.269Z,93.09
2022-12-11T16:20:32.124Z,93.97
2022-12-11T16:22:59.917Z,93.85
2022-12-11T16:25:29.286Z,93.43
2022-12-11T16:27:58.031Z,93.76
2022-12-11T16:30:26.437Z,94.25
2022-12-11T16:32:54.415Z,94.53
2022-12-11T16:35:23.090Z,94.06
2022-12-11T16:37:51.910Z,94.49
2022-12-11T16:40:19.970Z,94.63
2022-12-11T16:42:50.267Z,94.23
2022-12-11T16:45:19.864Z,94.87
2022-12-11T16:47:47.691Z,94.76
2022-12-11T16:50:17.363Z,95.23
2022-12-11T16:52:47.378Z,95.15
2022-12-11T16:55:18.244Z,95.19
2022-12-11T16:57:47.575Z,95.95
2022-12-11T17:00:18.266Z,95.53
2022-12-11T17:02:46.867Z,95.82
2022-12-11T17:05:15.124Z,95.24
2022-12-11T17:07:43.278Z,96.08
2022-12-11T17:10:11.194Z,95.97
2022-12-11T17:12:39.242Z,95.98
2022-12-11T17:15:08.151Z,95.03
2022-12-11T17:17:37.399Z,96.47
2022-12-11T17:20:05.772Z,96.24
2022-12-11T17:22:33.544Z,96.46
2022-12-11T17:25:01.499Z,96.71
2022-12-11T17:27:29.332Z,96.65
2022-12-11T17:29:57.330Z,95.81
2022-12-11T17:32:25.250Z,96.31
2022-12-11T17:34:54.399Z,95.80
2022-12-11T17:37:22.135Z,96.75
2022-12-11T17:39:50.310Z,96.65
2022-12-11T17:42:18.081Z,97.08
2022-12-11T17:44:46.368Z,96.95
2022-12-11T17:47:14.185Z,97.68
2022-12-11T17:49:42.024Z,95.89
2022-12-11T17:52:11.252Z,95.98
2022-12-11T17:54:40.216Z,95.90
2022-12-11T17:57:08.009Z,96.31
2022-12-11T17:59:35.732Z,95.43
2022-12-11T18:02:03.582Z,95.84
2022-12-11T18:04:31.392Z,95.30
2022-12-11T18:06:59.076Z,95.79
2022-12-11T18:09:28.272Z,96.47
2022-12-11T18:11:56.023Z,96.03
2022-12-11T18:14:23.953Z,96.00
2022-12-11T18:16:52.508Z,95.67
2022-12-11T18:19:22.099Z,96.80
2022-12-11T18:21:50.065Z,95.80
2022-12-11T18:24:17.913Z,95.97
2022-12-11T18:26:47.226Z,96.03
2022-12-11T18:29:15.197Z,96.15
2022-12-11T18:31:43.215Z,95.96
2022-12-11T18:34:11.680Z,96.33
2022-12-11T18:36:40.607Z,96.18
2022-12-11T18:39:08.780Z,96.77
2022-12-11T18:41:36.709Z,97.15
2022-12-11T18:44:09.769Z,96.39
2022-12-11T18:46:39.348Z,96.93
2022-12-11T18:49:07.449Z,96.33
2022-12-11T18:51:35.863Z,96.35
2022-12-11T18:54:03.708Z,95.76
2022-12-11T18:56:31.472Z,95.97
2022-12-11T18:58:59.433Z,95.92
2022-12-11T19:01:30.146Z,95.72
2022-12-11T19:04:03.535Z,96.00
2022-12-11T19:06:35.346Z,96.62
2022-12-11T19:09:06.304Z,96.92
2022-12-11T19:11:35.958Z,97.59
2022-12-11T19:14:05.119Z,96.90
2022-12-11T19:16:36.517Z,96.77
2022-12-11T19:19:07.352Z,97.42
2022-12-11T19:21:35.405Z,96.48
2022-12-11T19:24:03.161Z,96.78
2022-12-11T19:26:31.526Z,96.37
2022-12-11T19:29:00.199Z,96.43
2022-12-11T19:31:29.592Z,96.99
2022-12-11T19:33:59.063Z,96.19
2022-12-11T19:36:28.378Z,96.17
2022-12-11T19:39:01.124Z,96.33
2022-12-11T19:41:30.508Z,96.56
2022-12-11T19:43:59.614Z,96.07
2022-12-11T19:46:29.112Z,95.89
2022-12-11T19:48:59.546Z,95.51
2022-12-11T19:51:31.323Z,95.38
2022-12-11T19:54:00.284Z,95.38
2022-12-11T19:56:28.057Z,96.17
2022-12-11T19:58:56.213Z,95.36
2022-12-11T20:01:28.580Z,96.46
2022-12-11T20:04:00.100Z,96.48
2022-12-11T20:06:28.528Z,97.46
2022-12-11T20:08:56.942Z,97.21
2022-12-11T20:11:25.096Z,97.07
2022-12-11T20:13:55.369Z,97.73
2022-12-11T20:16:45.793Z,97.59
2022-12-11T20:19:13.453Z,96.67
2022-12-11T20:21:42.130Z,97.53
2022-12-11T20:24:10.372Z,97.30
2022-12-11T20:26:38.517Z,97.61
2022-12-11T20:29:08.321Z,97.74
2022-12-11T20:31:37.851Z,97.49
2022-12-11T20:34:06.230Z,98.53
2022-12-11T20:36:35.651Z,97.84
2022-12-11T20:39:04.830Z,97.83
2022-12-11T20:41:32.684Z,98.13
2022-12-11T20:44:00.508Z,98.12
2022-12-11T20:46:28.845Z,97.99
2022-12-11T20:48:58.655Z,97.65
2022-12-11T20:51:27.974Z,97.78
2022-12-11T20:53:59.554Z,98.47
2022-12-11T20:56:29.741Z,99.20
2022-12-11T20:58:57.869Z,98.68
2022-12-11T21:01:27.350Z,98.64
2022-12-11T21:03:55.149Z,98.48
2022-12-11T21:06:26.183Z,98.61
2022-12-11T21:08:54.230Z,98.63
2022-12-11T21:11:23.464Z,98.72
2022-12-11T21:13:51.794Z,98.44
2022-12-11T21:16:20.603Z,98.76
2022-12-11T21:18:48.536Z,98.72
2022-12-11T21:21:17.069Z,98.75
2022-12-11T21:23:45.463Z,98.54
2022-12-11T21:26:14.209Z,98.30
2022-12-11T21:28:43.687Z,99.65
2022-12-11T21:31:15.389Z,99.89
2022-12-11T21:33:43.476Z,99.39
2022-12-11T21:36:13.219Z,99.77
2022-12-11T21:38:43.251Z,99.28
2022-12-11T21:41:13.520Z,98.49
2022-12-11T21:44:14.592Z,99.02
2022-12-11T21:46:31.132Z,99.04
2022-12-11T21:48:58.956Z,98.66
2022-12-11T21:51:35.719Z,99.89
2022-12-11T21:54:06.174Z,99.84
2022-12-11T21:56:34.097Z,98.86
2022-12-11T21:59:03.232Z,100.00
2022-12-11T22:01:35.162Z,99.27
2022-12-11T22:04:03.286Z,98.48
2022-12-11T22:06:31.747Z,98.97
2022-12-11T22:08:59.538Z,99.10
2022-12-11T22:11:30.448Z,98.52
2022-12-11T22:13:58.880Z,99.76
2022-12-11T22:16:28.386Z,99.03
2022-12-11T22:18:56.485Z,99.25
2022-12-11T22:21:25.409Z,98.79
2022-12-11T22:23:53.178Z,98.58
2022-12-11T22:26:23.594Z,98.24
2022-12-11T22:28:51.911Z,98.67
2022-12-11T22:31:21.931Z,99.36
2022-12-11T22:33:53.758Z,99.35
2022-12-11T22:36:22.266Z,98.96
2022-12-11T22:38:50.515Z,99.25
2022-12-11T22:41:23.903Z,99.14
2022-12-11T22:43:52.288Z,98.96
2022-12-11T22:46:23.257Z,99.54
2022-12-11T22:48:52.607Z,98.87
2022-12-11T22:51:21.136Z,99.37
2022-12-11T22:53:49.186Z,99.42
2022-12-11T22:56:17.352Z,99.92
2022-12-11T22:58:45.103Z,99.60
2022-12-11T23:01:15.661Z,99.40
2022-12-11T23:03:43.754Z,99.87
2022-12-11T23:06:15.815Z,99.45
2022-12-11T23:08:44.778Z,99.31
2022-12-11T23:11:15.715Z,99.64
2022-12-11T23:13:43.932Z,99.81
2022-12-11T23:16:12.695Z,100.00
2022-12-11T23:18:40.843Z,99.21
2022-12-11T23:21:09.883Z,100.00
2022-12-11T23:23:39.126Z,100.00
2022-12-11T23:26:09.169Z,100.00
2022-12-11T23:28:37.040Z,100.00
2022-12-11T23:31:04.875Z,100.00
2022-12-11T23:33:32.714Z,99.93
2022-12-11T23:36:00.985Z,100.00
2022-12-11T23:38:28.781Z,100.00
2022-12-11T23:41:00.301Z,100.00
2022-12-11T23:43:28.484Z,100.00
2022-12-11T23:45:57.576Z,100.00
2022-12-11T23:48:25.548Z,100.00
2022-12-11T23:50:53.586Z,100.00
2022-12-11T23:53:21.516Z,100.00
2022-12-11T23:55:49.280Z,100.00
2022-12-11T23:58:18.310Z,100.00
